Observations for SOUTHEND-ON-SEA, United Kingdom (EGMC)

EGMC 220520Z 19002KT 9999 FEW019 16/14 Q1020
EGMC 220450Z 17003KT 9999 BKN019 17/14 Q1020
EGMC 220420Z 00000KT 8000 BKN018 17/15 Q1020
EGMC 220350Z 00000KT 7000 SCT015 OVC017 17/15 Q1020 
EGMC 220250Z 00000KT 8000 OVC016 17/14 Q1020
EGMC 220150Z 00000KT 9999 OVC018 17/14 Q1021
EGMC 220050Z 00000KT 9999 OVC020 17/14 Q1021
EGMC 212350Z 00000KT 9999 OVC020 17/14 Q1021
EGMC 212250Z 09003KT 9999 OVC021 17/14 Q1021
EGMC 212220Z 09003KT 9999 OVC021 17/14 Q1021
EGMC 212150Z 10003KT 9999 OVC020 17/14 Q1021
EGMC 212120Z 10003KT 9999 OVC021 17/14 Q1021
EGMC 212050Z 08004KT 9999 OVC022 17/14 Q1021
EGMC 212020Z 09002KT 9999 OVC023 17/14 Q1021
EGMC 211950Z 09005KT 9999 BKN024 17/14 Q1021
EGMC 211920Z 12005KT 9999 BKN022 17/14 Q1021
EGMC 211850Z 09005KT 9999 BKN022 18/14 Q1021
EGMC 211820Z 09005KT 9999 BKN019 18/13 Q1021
EGMC 211750Z 10005KT 9999 BKN019 18/13 Q1021
EGMC 211720Z 11005KT 070V140 9999 BKN017 17/13 Q1021
EGMC 211650Z 12005KT 090V150 9999 BKN016 17/13 Q1021
EGMC 211620Z 13005KT 050V170 9999 BKN017 18/13 Q1021
EGMC 211550Z 14006KT 9999 BKN018 18/13 Q1021
EGMC 211520Z 10004KT 090V160 9999 BKN018 19/13 Q1021
EGMC 211450Z 11006KT 070V160 9999 BKN017 19/13 Q1021
EGMC 211420Z 10005KT 070V140 9999 BKN017 18/13 Q1021
EGMC 211350Z 10005KT 070V140 9999 BKN016 18/13 Q1021
EGMC 211320Z 11005KT 080V140 9999 BKN015 OVC017 18/13 Q1022 
EGMC 211250Z 10007KT 9999 BKN013 18/14 Q1022
EGMC 211220Z 11008KT 9999 SCT014 BKN019 17/14 Q1022 
EGMC 211150Z 14007KT 9999 SCT014 BKN019 17/13 Q1022 
EGMC 211120Z 12008KT 9999 SCT011 BKN013 17/13 Q1022 
EGMC 211050Z 11009KT 070V150 9999 FEW009 OVC012 17/13 Q1022 
EGMC 211020Z 12007KT 080V150 9999 FEW009 BKN011 16/13 Q1022 
EGMC 210950Z 13007KT 090V160 9999 SCT009 OVC011 16/13 Q1022 
EGMC 210920Z 12005KT 080V160 9999 BKN010 OVC013 16/14 Q1022 
EGMC 210850Z 13006KT 080V160 9999 BKN009 BKN013 16/13 Q1022 
EGMC 210820Z 13006KT 100V160 9999 BKN009 BKN013 16/13 Q1022 
EGMC 210750Z 13006KT 100V160 9999 BKN008 BKN013 15/13 Q1022 
EGMC 210720Z 13006KT 090V170 9999 OVC007 15/13 Q1022
EGMC 210650Z 11005KT 070V140 9999 SCT007 OVC009 15/13 Q1022 
EGMC 210620Z 11005KT 9999 SCT007 BKN010 15/13 Q1021 
EGMC 210550Z 10005KT 7000 FEW005 BKN006 15/13 Q1021 
EGMC 210520Z 10004KT 7000 FEW005 BKN006 14/13 Q1021 
EGMC 210450Z 12005KT 8000 -RA BKN005 14/13 Q1021